Time;durP1;ratioP1;P1;durP2;ratioP2;P2;SDS_P1;SDS_P2;PMS_P1;PMS_P2;Temp;Humidity;BMP_temperature;BMP_pressure;BME280_temperature;BME280_humidity;BME280_pressure;Samples;Min_cycle;Max_cycle;Signal;HPM_P1;HPM_P2
2023/06/11 00:00:13;;;;;;;;;;;;;;;;;;6233055;28;20061;-87
2023/06/11 00:03:21;;;;;;;12.07;7.78;;;;;;;;;;6230492;28;20645;-86
2023/06/11 00:06:23;;;;;;;10.98;7.35;;;;;;;;;;6232019;28;20084;-86
2023/06/11 00:09:26;;;;;;;10.73;7.30;;;;;;;;;;6234288;28;20057;-85
2023/06/11 00:12:29;;;;;;;11.55;6.28;;;;;;;;;;6231794;28;20086;-86
2023/06/11 00:15:35;;;;;;;9.85;6.78;;;;;;;;;;6235779;28;20088;-85
2023/06/11 00:18:40;;;;;;;10.15;7.32;;;;;;;;;;6231714;28;20152;-85
2023/06/11 00:21:43;;;;;;;10.30;7.03;;;;;;;;;;6233027;28;20046;-85
2023/06/11 00:24:46;;;;;;;7.50;5.82;;;;;;;;;;6233702;28;20253;-85
2023/06/11 00:27:52;;;;;;;9.10;6.50;;;;;;;;;;6230676;28;20130;-85
2023/06/11 00:30:54;;;;;;;8.98;5.85;;;;;;;;;;6231082;28;20223;-85
2023/06/11 00:33:56;;;;;;;7.38;5.93;;;;;;;;;;6229587;28;20065;-85
2023/06/11 00:37:06;;;;;;;10.25;6.28;;;;;;;;;;6236115;28;20053;-85
2023/06/11 00:40:11;;;;;;;8.23;6.10;;;;;;;;;;6233936;28;20060;-85
2023/06/11 00:43:17;;;;;;;8.52;5.82;;;;;;;;;;6235094;28;20049;-85
2023/06/11 00:46:21;;;;;;;9.00;6.30;;;;;;;;;;6234068;28;20112;-85
2023/06/11 00:49:24;;;;;;;8.43;6.05;;;;;;;;;;6229290;28;20061;-85
2023/06/11 00:52:27;;;;;;;9.40;6.88;;;;;;;;;;6215203;28;20053;-86
2023/06/11 00:55:29;;;;;;;7.82;6.53;;;;;;;;;;6232611;28;20053;-85
2023/06/11 00:58:33;;;;;;;11.10;7.80;;;;;;;;;;6228168;28;20590;-85
2023/06/11 01:01:41;;;;;;;11.50;8.00;;;;;;;;;;6234990;28;20053;-85
2023/06/11 01:04:43;;;;;;;10.23;8.05;;;;;;;;;;6233294;28;20061;-86
2023/06/11 01:07:50;;;;;;;8.77;7.10;;;;;;;;;;6231714;28;20314;-85
2023/06/11 01:10:52;;;;;;;13.02;8.40;;;;;;;;;;6231681;28;20057;-86
2023/06/11 01:13:58;;;;;;;10.95;8.13;;;;;;;;;;6234938;28;20122;-85
2023/06/11 01:17:04;;;;;;;10.45;8.00;;;;;;;;;;6229151;28;20061;-86
2023/06/11 01:20:12;;;;;;;11.10;8.35;;;;;;;;;;6231955;28;20072;-86
2023/06/11 01:23:25;;;;;;;10.98;7.68;;;;;;;;;;6230905;28;20460;-86
2023/06/11 01:26:39;;;;;;;12.02;8.27;;;;;;;;;;6233738;28;20626;-85
2023/06/11 01:29:45;;;;;;;9.02;7.72;;;;;;;;;;6230740;28;20112;-85
2023/06/11 01:32:48;;;;;;;11.45;7.82;;;;;;;;;;6232219;28;20064;-85
2023/06/11 01:35:52;;;;;;;9.13;7.10;;;;;;;;;;6231892;28;20046;-86
2023/06/11 01:38:54;;;;;;;9.48;7.32;;;;;;;;;;6231624;28;20323;-85
2023/06/11 01:41:56;;;;;;;9.05;7.35;;;;;;;;;;6231659;28;20132;-85
2023/06/11 01:45:04;;;;;;;10.45;7.15;;;;;;;;;;6237205;28;20088;-86
2023/06/11 01:48:09;;;;;;;9.27;7.00;;;;;;;;;;6234854;28;20337;-86
2023/06/11 01:51:14;;;;;;;9.55;6.97;;;;;;;;;;6237733;28;20057;-86
2023/06/11 01:54:17;;;;;;;8.20;6.60;;;;;;;;;;6245720;28;20320;-86
2023/06/11 01:57:19;;;;;;;8.98;7.10;;;;;;;;;;6234814;28;20321;-85
2023/06/11 02:00:22;;;;;;;9.88;6.93;;;;;;;;;;6236845;28;20054;-86
2023/06/11 02:03:24;;;;;;;;;;;;;;;;;;6234186;28;20708;-86
2023/06/11 02:06:26;;;;;;;10.93;7.00;;;;;;;;;;6230222;28;19924;-85
2023/06/11 02:09:28;;;;;;;12.15;7.88;;;;;;;;;;6233546;28;20076;-85
2023/06/11 02:12:31;;;;;;;8.95;7.95;;;;;;;;;;6229152;28;20056;-86
2023/06/11 02:15:34;;;;;;;9.65;7.60;;;;;;;;;;6236269;28;20045;-86
2023/06/11 02:18:36;;;;;;;9.82;7.60;;;;;;;;;;6226078;28;20116;-85
2023/06/11 02:21:38;;;;;;;9.63;7.35;;;;;;;;;;6229503;28;20317;-86
2023/06/11 02:24:40;;;;;;;11.32;7.55;;;;;;;;;;6228582;28;20050;-85
2023/06/11 02:27:42;;;;;;;9.50;7.40;;;;;;;;;;6231598;28;20116;-86
2023/06/11 02:30:45;;;;;;;10.88;7.63;;;;;;;;;;6228759;28;20971;-86
2023/06/11 02:33:47;;;;;;;11.85;7.65;;;;;;;;;;6229250;28;20722;-86
2023/06/11 02:36:49;;;;;;;8.95;7.28;;;;;;;;;;6228587;28;20057;-86
2023/06/11 02:39:51;;;;;;;9.40;7.25;;;;;;;;;;6231381;28;20178;-86
2023/06/11 02:42:53;;;;;;;10.52;7.65;;;;;;;;;;6233396;28;20053;-86
2023/06/11 02:45:56;;;;;;;11.93;7.57;;;;;;;;;;6231248;28;20050;-87
2023/06/11 02:48:58;;;;;;;8.80;7.15;;;;;;;;;;6228599;28;20257;-86
2023/06/11 02:52:00;;;;;;;9.10;7.07;;;;;;;;;;6232165;28;20337;-86
2023/06/11 02:55:02;;;;;;;9.50;7.28;;;;;;;;;;6214905;28;20151;-86
2023/06/11 02:58:04;;;;;;;10.75;7.00;;;;;;;;;;6239705;28;20300;-86
2023/06/11 03:04:23;;;;;;;10.43;7.50;;;;;;;;;;6235848;28;20059;-86
2023/06/11 03:07:26;;;;;;;10.40;7.68;;;;;;;;;;6234252;28;20041;-85
2023/06/11 03:10:28;;;;;;;8.52;7.30;;;;;;;;;;6239316;28;20057;-85
2023/06/11 03:13:29;;;;;;;11.45;7.32;;;;;;;;;;6233567;28;20046;-87
2023/06/11 03:16:33;;;;;;;11.38;7.90;;;;;;;;;;6239931;28;20488;-86
2023/06/11 03:19:34;;;;;;;;;;;;;;;;;;6238240;28;20053;-85
2023/06/11 03:22:36;;;;;;;9.32;7.20;;;;;;;;;;6238484;28;20109;-86
2023/06/11 03:25:39;;;;;;;8.82;7.07;;;;;;;;;;6243655;28;20057;-85
2023/06/11 03:28:41;;;;;;;8.88;7.18;;;;;;;;;;6240142;28;20117;-86
2023/06/11 03:31:44;;;;;;;11.32;7.32;;;;;;;;;;6237803;28;20050;-85
2023/06/11 03:34:46;;;;;;;8.82;6.88;;;;;;;;;;6209717;28;20057;-86
2023/06/11 03:37:48;;;;;;;9.30;7.50;;;;;;;;;;6212104;28;20061;-85
2023/06/11 03:40:49;;;;;;;9.63;7.10;;;;;;;;;;6214014;28;20049;-85
2023/06/11 03:43:51;;;;;;;12.02;7.90;;;;;;;;;;6215126;28;20050;-86
2023/06/11 03:46:54;;;;;;;8.88;7.72;;;;;;;;;;6214155;28;20615;-86
2023/06/11 03:49:56;;;;;;;9.10;6.57;;;;;;;;;;6211063;28;20096;-86
2023/06/11 03:52:59;;;;;;;9.35;7.82;;;;;;;;;;6212208;28;20408;-86
2023/06/11 03:56:00;;;;;;;11.32;7.65;;;;;;;;;;6220130;28;20060;-86
2023/06/11 03:59:02;;;;;;;8.85;6.93;;;;;;;;;;6212117;28;20354;-86
2023/06/11 04:02:06;;;;;;;9.57;7.68;;;;;;;;;;6214906;28;20053;-86
2023/06/11 04:05:07;;;;;;;;;;;;;;;;;;6215679;28;20316;-86
2023/06/11 04:08:09;;;;;;;9.75;6.50;;;;;;;;;;6209583;28;19987;-85
2023/06/11 04:11:11;;;;;;;11.88;7.32;;;;;;;;;;6210127;28;20084;-86
2023/06/11 04:14:13;;;;;;;9.00;7.15;;;;;;;;;;6196503;28;20270;-86
2023/06/11 04:17:16;;;;;;;10.15;7.55;;;;;;;;;;6210203;28;20180;-86
2023/06/11 04:20:18;;;;;;;10.27;6.88;;;;;;;;;;6205566;28;20666;-87
2023/06/11 04:23:20;;;;;;;7.93;6.15;;;;;;;;;;6211266;28;20056;-86
2023/06/11 04:26:23;;;;;;;15.25;6.68;;;;;;;;;;6207879;28;20054;-86
2023/06/11 04:29:29;;;;;;;;;;;;;;;;;;6210731;28;20081;-87
2023/06/11 04:32:34;;;;;;;8.85;6.82;;;;;;;;;;6214709;28;20086;-86
2023/06/11 04:35:38;;;;;;;8.40;6.40;;;;;;;;;;6231863;28;20050;-86
2023/06/11 04:38:44;;;;;;;8.15;5.88;;;;;;;;;;6227269;28;20064;-86
2023/06/11 04:41:47;;;;;;;9.43;5.82;;;;;;;;;;6235691;28;20135;-85
2023/06/11 04:44:49;;;;;;;10.48;5.05;;;;;;;;;;6234442;28;20113;-86
2023/06/11 04:47:52;;;;;;;5.85;4.97;;;;;;;;;;6233066;28;20049;-87
2023/06/11 04:50:54;;;;;;;8.40;5.30;;;;;;;;;;6231835;28;20166;-85
2023/06/11 04:53:57;;;;;;;6.40;4.75;;;;;;;;;;6198236;28;20120;-85
2023/06/11 04:56:59;;;;;;;7.25;4.45;;;;;;;;;;6232762;28;20128;-86
2023/06/11 05:00:02;;;;;;;6.85;5.55;;;;;;;;;;6233114;28;20063;-86
2023/06/11 05:03:06;;;;;;;7.40;5.70;;;;;;;;;;6229969;28;20057;-87
2023/06/11 05:06:13;;;;;;;6.30;5.47;;;;;;;;;;6232608;28;20280;-87
2023/06/11 05:09:15;;;;;;;7.80;5.07;;;;;;;;;;6234114;28;20396;-87
2023/06/11 05:12:17;;;;;;;7.55;4.88;;;;;;;;;;6229522;28;20057;-86
2023/06/11 05:15:19;;;;;;;7.43;5.10;;;;;;;;;;6231503;28;20064;-86
2023/06/11 05:18:23;;;;;;;7.50;5.60;;;;;;;;;;6233400;28;20265;-86
2023/06/11 05:21:26;;;;;;;7.45;4.95;;;;;;;;;;6231784;28;20037;-85
2023/06/11 05:24:29;;;;;;;6.20;4.70;;;;;;;;;;6233252;28;20060;-85
2023/06/11 05:27:31;;;;;;;6.40;4.50;;;;;;;;;;6232197;28;20049;-86
2023/06/11 05:30:36;;;;;;;6.85;4.80;;;;;;;;;;6210362;28;20057;-86
2023/06/11 05:33:39;;;;;;;6.38;4.82;;;;;;;;;;6229370;28;20046;-86
2023/06/11 05:36:42;;;;;;;6.45;5.15;;;;;;;;;;6234857;28;20053;-86
2023/06/11 05:39:44;;;;;;;9.35;5.45;;;;;;;;;;6233043;28;20068;-86
2023/06/11 05:42:46;;;;;;;7.70;5.68;;;;;;;;;;6230154;28;20073;-86
2023/06/11 05:45:48;;;;;;;7.20;5.25;;;;;;;;;;6233261;28;20061;-86
2023/06/11 05:48:52;;;;;;;7.90;4.90;;;;;;;;;;6229439;28;20068;-86
2023/06/11 05:51:54;;;;;;;;;;;;;;;;;;6235936;28;20148;-85
2023/06/11 05:54:56;;;;;;;7.68;5.40;;;;;;;;;;6235868;28;19939;-87
2023/06/11 05:57:58;;;;;;;10.23;5.80;;;;;;;;;;6235425;28;20076;-87
2023/06/11 06:01:02;;;;;;;8.73;6.13;;;;;;;;;;6236215;28;20101;-86
2023/06/11 06:04:05;;;;;;;6.60;5.45;;;;;;;;;;6231201;28;20097;-86
2023/06/11 06:07:07;;;;;;;7.70;5.93;;;;;;;;;;6225927;28;20052;-86
2023/06/11 06:10:10;;;;;;;8.13;6.35;;;;;;;;;;6232982;28;20244;-87
2023/06/11 06:13:11;;;;;;;7.93;5.70;;;;;;;;;;6235246;28;20675;-85
2023/06/11 06:16:13;;;;;;;7.80;5.80;;;;;;;;;;6233606;28;20101;-86
2023/06/11 06:19:16;;;;;;;7.15;5.72;;;;;;;;;;6229577;28;20046;-86
2023/06/11 06:22:19;;;;;;;8.30;5.57;;;;;;;;;;6231534;28;20276;-86
2023/06/11 06:25:24;;;;;;;7.05;5.03;;;;;;;;;;6229222;28;20773;-86
2023/06/11 06:28:26;;;;;;;9.00;6.60;;;;;;;;;;6225800;28;20049;-87
2023/06/11 06:31:28;;;;;;;9.15;6.28;;;;;;;;;;6229024;28;20065;-87
2023/06/11 06:34:31;;;;;;;7.72;5.30;;;;;;;;;;6231473;28;20049;-86
2023/06/11 06:37:33;;;;;;;8.95;5.70;;;;;;;;;;6233991;28;20237;-86
2023/06/11 06:40:35;;;;;;;9.27;5.90;;;;;;;;;;6230137;28;20068;-84
2023/06/11 06:43:36;;;;;;;6.30;5.07;;;;;;;;;;6232299;28;20057;-86
2023/06/11 06:46:38;;;;;;;7.65;5.20;;;;;;;;;;6233082;28;20061;-86
2023/06/11 06:49:42;;;;;;;6.47;5.10;;;;;;;;;;6233845;28;20049;-85
2023/06/11 06:52:43;;;;;;;8.50;4.75;;;;;;;;;;6229880;28;20061;-85
2023/06/11 06:55:45;;;;;;;11.05;5.93;;;;;;;;;;6812993;22;20053;-86
2023/06/11 06:58:47;;;;;;;8.18;5.18;;;;;;;;;;6214026;28;20272;-88
2023/06/11 07:01:48;;;;;;;6.22;5.43;;;;;;;;;;6217808;28;20042;-87
2023/06/11 07:04:52;;;;;;;6.68;5.25;;;;;;;;;;6216051;28;20141;-87
2023/06/11 07:07:53;;;;;;;7.55;5.28;;;;;;;;;;6209367;28;20074;-87
2023/06/11 07:10:56;;;;;;;7.05;4.50;;;;;;;;;;6215955;28;20054;-87
2023/06/11 07:13:58;;;;;;;6.40;5.47;;;;;;;;;;6215845;28;20293;-85
2023/06/11 07:16:59;;;;;;;7.45;5.45;;;;;;;;;;6220401;28;20329;-86
2023/06/11 07:20:07;;;;;;;7.47;5.22;;;;;;;;;;6187848;28;20056;-85
2023/06/11 07:23:08;;;;;;;6.97;5.03;;;;;;;;;;6214963;28;20042;-86
2023/06/11 07:26:11;;;;;;;6.35;4.43;;;;;;;;;;6216134;28;20054;-85
2023/06/11 07:29:13;;;;;;;8.02;4.63;;;;;;;;;;6214476;28;20061;-86
2023/06/11 07:32:14;;;;;;;6.93;4.32;;;;;;;;;;6212557;28;20052;-86
2023/06/11 07:35:18;;;;;;;5.00;3.88;;;;;;;;;;6214884;28;20054;-85
2023/06/11 07:38:19;;;;;;;5.72;4.10;;;;;;;;;;6212321;28;20061;-87
2023/06/11 07:41:21;;;;;;;8.70;4.35;;;;;;;;;;6216123;28;20242;-86
2023/06/11 07:44:23;;;;;;;6.70;4.65;;;;;;;;;;6219355;28;20072;-85
2023/06/11 07:47:25;;;;;;;6.38;4.43;;;;;;;;;;6221686;28;20062;-86
2023/06/11 07:50:28;;;;;;;6.45;4.72;;;;;;;;;;6220784;28;20057;-86
2023/06/11 07:53:33;;;;;;;;;;;;;;;;;;6221032;28;20065;-86
2023/06/11 07:56:34;;;;;;;5.53;4.45;;;;;;;;;;6217684;28;19933;-86
2023/06/11 07:59:37;;;;;;;6.10;4.25;;;;;;;;;;6218926;28;20721;-86
2023/06/11 08:02:38;;;;;;;9.82;5.72;;;;;;;;;;6201841;28;20113;-85
2023/06/11 08:05:42;;;;;;;7.63;5.60;;;;;;;;;;6221315;28;20062;-87
2023/06/11 08:08:43;;;;;;;;;;;;;;;;;;6218310;28;20253;-85
2023/06/11 08:11:45;;;;;;;6.03;5.30;;;;;;;;;;6218402;28;19941;-86
2023/06/11 08:14:46;;;;;;;6.15;4.78;;;;;;;;;;6218667;28;20047;-86
2023/06/11 08:17:48;;;;;;;5.45;4.63;;;;;;;;;;6220798;28;20054;-86
2023/06/11 08:20:52;;;;;;;6.88;4.45;;;;;;;;;;6217331;28;20046;-86
2023/06/11 08:23:54;;;;;;;6.25;5.47;;;;;;;;;;6217637;28;20057;-86
2023/06/11 08:26:56;;;;;;;6.53;5.25;;;;;;;;;;6218225;28;21482;-85
2023/06/11 08:29:58;;;;;;;7.30;5.55;;;;;;;;;;6216662;28;20047;-86
2023/06/11 08:32:59;;;;;;;9.43;6.90;;;;;;;;;;6219481;28;20064;-85
2023/06/11 08:36:04;;;;;;;7.03;5.82;;;;;;;;;;6217929;28;20058;-86
2023/06/11 08:39:07;;;;;;;10.82;6.68;;;;;;;;;;6181183;28;20291;-85
2023/06/11 08:42:10;;;;;;;7.70;5.40;;;;;;;;;;6203241;28;20050;-85
2023/06/11 08:45:12;;;;;;;8.85;5.40;;;;;;;;;;6217853;28;20060;-85
2023/06/11 08:48:14;;;;;;;7.90;5.83;;;;;;;;;;6216201;28;20050;-85
2023/06/11 08:51:17;;;;;;;10.70;6.60;;;;;;;;;;6219814;28;20121;-85
2023/06/11 08:54:20;;;;;;;7.78;5.47;;;;;;;;;;6214073;28;20058;-85
2023/06/11 08:57:21;;;;;;;8.20;5.40;;;;;;;;;;6216196;28;20097;-85
2023/06/11 09:00:23;;;;;;;9.23;6.03;;;;;;;;;;6214614;28;20058;-85
2023/06/11 09:03:25;;;;;;;7.53;6.32;;;;;;;;;;6214774;28;20288;-85
2023/06/11 09:06:29;;;;;;;7.07;5.37;;;;;;;;;;6218270;28;20058;-85
2023/06/11 09:09:31;;;;;;;9.02;6.07;;;;;;;;;;6216506;28;20518;-85
2023/06/11 09:12:33;;;;;;;8.27;6.57;;;;;;;;;;6214948;28;20068;-85
2023/06/11 09:15:35;;;;;;;7.63;6.57;;;;;;;;;;6213943;28;20460;-85
2023/06/11 09:18:37;;;;;;;9.15;7.05;;;;;;;;;;6214409;28;20065;-85
2023/06/11 09:21:40;;;;;;;9.63;6.13;;;;;;;;;;6214694;28;20245;-85
2023/06/11 09:24:41;;;;;;;8.82;6.97;;;;;;;;;;6210326;28;20268;-85
2023/06/11 09:27:46;;;;;;;9.75;7.03;;;;;;;;;;6203347;28;20058;-85
2023/06/11 09:30:54;;;;;;;8.25;6.60;;;;;;;;;;6213877;28;20050;-85
2023/06/11 09:34:02;;;;;;;9.90;7.30;;;;;;;;;;6213830;28;20087;-85
2023/06/11 09:37:06;;;;;;;10.32;7.28;;;;;;;;;;6214639;28;20096;-85
2023/06/11 09:40:11;;;;;;;7.13;6.32;;;;;;;;;;6216773;28;20058;-85
2023/06/11 09:43:13;;;;;;;10.25;7.10;;;;;;;;;;6215465;28;20077;-86
2023/06/11 09:46:15;;;;;;;8.43;6.05;;;;;;;;;;6216990;28;20058;-86
2023/06/11 09:49:17;;;;;;;8.23;7.38;;;;;;;;;;6217393;28;20632;-85
2023/06/11 09:52:20;;;;;;;9.93;8.27;;;;;;;;;;6214523;28;20501;-86
2023/06/11 09:55:26;;;;;;;8.35;7.50;;;;;;;;;;6215185;28;20069;-85
2023/06/11 09:58:29;;;;;;;8.68;7.05;;;;;;;;;;6215508;28;20065;-84
2023/06/11 10:01:30;;;;;;;7.68;6.88;;;;;;;;;;6214683;28;21073;-84
2023/06/11 10:04:32;;;;;;;8.10;6.97;;;;;;;;;;6216223;28;20058;-85
2023/06/11 10:07:39;;;;;;;10.80;9.05;;;;;;;;;;6215624;28;20057;-85
2023/06/11 10:10:43;;;;;;;13.32;9.45;;;;;;;;;;6216656;28;20337;-85
2023/06/11 10:13:56;;;;;;;7.90;6.90;;;;;;;;;;6217705;28;20738;-84
2023/06/11 10:17:02;;;;;;;12.70;7.70;;;;;;;;;;6219415;28;20078;-85
2023/06/11 10:20:04;;;;;;;9.73;7.38;;;;;;;;;;6214857;28;20049;-85
2023/06/11 10:23:10;;;;;;;8.60;7.50;;;;;;;;;;6216352;28;20050;-86
2023/06/11 10:26:11;;;;;;;11.75;8.90;;;;;;;;;;6217110;28;20062;-87
2023/06/11 10:29:14;;;;;;;8.93;8.02;;;;;;;;;;6220384;28;20373;-86
2023/06/11 10:32:17;;;;;;;9.07;6.80;;;;;;;;;;6220236;28;20057;-85
2023/06/11 10:35:23;;;;;;;8.40;7.53;;;;;;;;;;6224430;28;20046;-86
2023/06/11 10:38:30;;;;;;;8.20;7.38;;;;;;;;;;6217146;28;20050;-85
2023/06/11 10:41:32;;;;;;;9.40;6.78;;;;;;;;;;6220602;28;20042;-86
2023/06/11 10:44:41;;;;;;;7.70;6.35;;;;;;;;;;6219522;28;20106;-86
2023/06/11 10:47:44;;;;;;;9.55;6.95;;;;;;;;;;6216755;28;20174;-85
2023/06/11 10:50:46;;;;;;;7.15;6.45;;;;;;;;;;6218578;28;20355;-86
2023/06/11 10:53:55;;;;;;;;;;;;;;;;;;6221330;28;20738;-86
2023/06/11 10:56:58;;;;;;;8.70;7.50;;;;;;;;;;6218502;28;20228;-86
2023/06/11 11:00:01;;;;;;;8.70;6.97;;;;;;;;;;6216049;28;20113;-84
2023/06/11 11:03:09;;;;;;;8.13;7.32;;;;;;;;;;6214039;28;20678;-87
2023/06/11 11:06:10;;;;;;;6.95;6.28;;;;;;;;;;6215429;28;20383;-84
2023/06/11 11:09:21;;;;;;;9.40;8.45;;;;;;;;;;6213716;28;20085;-86
2023/06/11 11:12:22;;;;;;;11.23;7.32;;;;;;;;;;6211383;28;20062;-83
2023/06/11 11:15:24;;;;;;;10.77;8.30;;;;;;;;;;6213652;28;20057;-86
2023/06/11 11:18:26;;;;;;;8.98;7.85;;;;;;;;;;6221684;28;20115;-86
2023/06/11 11:21:29;;;;;;;10.27;7.43;;;;;;;;;;6218780;28;20452;-85
2023/06/11 11:24:37;;;;;;;8.50;7.57;;;;;;;;;;6222210;28;20061;-84
2023/06/11 11:27:38;;;;;;;7.88;7.07;;;;;;;;;;6221716;28;20240;-85
2023/06/11 11:30:41;;;;;;;12.27;10.00;;;;;;;;;;6219679;28;20050;-84
2023/06/11 11:33:42;;;;;;;;;;;;;;;;;;6219480;28;20061;-85
2023/06/11 11:36:45;;;;;;;9.50;8.60;;;;;;;;;;6219268;28;19944;-85
2023/06/11 11:39:48;;;;;;;10.23;7.68;;;;;;;;;;6219562;28;20468;-84
2023/06/11 11:42:50;;;;;;;7.75;6.40;;;;;;;;;;6205914;28;20050;-84
2023/06/11 11:45:54;;;;;;;7.65;5.35;;;;;;;;;;6218766;28;20054;-84
2023/06/11 11:48:56;;;;;;;7.43;6.22;;;;;;;;;;6214930;28;20245;-84
2023/06/11 11:52:00;;;;;;;10.00;8.07;;;;;;;;;;6220779;28;20108;-83
2023/06/11 11:55:05;;;;;;;9.50;7.63;;;;;;;;;;6218205;28;20058;-84
2023/06/11 11:58:08;;;;;;;7.97;7.20;;;;;;;;;;6214924;28;20046;-83
2023/06/11 12:01:21;;;;;;;8.07;7.22;;;;;;;;;;6215953;28;20050;-86
2023/06/11 12:04:32;;;;;;;8.07;7.28;;;;;;;;;;6219557;28;20085;-85
2023/06/11 12:07:34;;;;;;;9.68;6.53;;;;;;;;;;6218900;28;20376;-83
2023/06/11 12:10:37;;;;;;;8.38;6.72;;;;;;;;;;6216697;28;20050;-83
2023/06/11 12:13:39;;;;;;;6.07;4.90;;;;;;;;;;6217980;28;20067;-83
2023/06/11 12:16:41;;;;;;;7.50;6.35;;;;;;;;;;6219334;28;20100;-82
2023/06/11 12:19:42;;;;;;;8.90;7.68;;;;;;;;;;6217636;28;20369;-84
2023/06/11 12:22:44;;;;;;;7.18;5.78;;;;;;;;;;6216028;28;20054;-83
2023/06/11 12:25:48;;;;;;;8.20;5.93;;;;;;;;;;6218986;28;20042;-84
2023/06/11 12:28:49;;;;;;;5.50;5.00;;;;;;;;;;6217359;28;20054;-85
2023/06/11 12:31:51;;;;;;;7.30;5.95;;;;;;;;;;6215695;28;20112;-82
2023/06/11 12:34:53;;;;;;;6.25;5.05;;;;;;;;;;6218356;28;20096;-83
2023/06/11 12:37:55;;;;;;;8.10;5.05;;;;;;;;;;6205921;28;20081;-84
2023/06/11 12:40:58;;;;;;;7.35;4.95;;;;;;;;;;6199981;28;20061;-82
2023/06/11 12:44:00;;;;;;;6.10;5.50;;;;;;;;;;6219050;28;20062;-83
2023/06/11 12:47:02;;;;;;;4.60;4.15;;;;;;;;;;6217195;28;20054;-83
2023/06/11 12:50:04;;;;;;;5.53;4.63;;;;;;;;;;6216993;28;20132;-83
2023/06/11 12:53:06;;;;;;;8.18;7.38;;;;;;;;;;6214179;28;20065;-85
2023/06/11 12:56:09;;;;;;;7.18;6.47;;;;;;;;;;6217239;28;20054;-85
2023/06/11 12:59:11;;;;;;;6.53;5.78;;;;;;;;;;6217346;28;20060;-83
2023/06/11 13:02:13;;;;;;;;;;;;;;;;;;6217472;28;20062;-83
2023/06/11 13:05:15;;;;;;;8.38;5.05;;;;;;;;;;6219889;28;19926;-84
2023/06/11 13:08:17;;;;;;;5.93;5.35;;;;;;;;;;6218294;28;20058;-83
2023/06/11 13:11:20;;;;;;;;;;;;;;;;;;6215393;28;20054;-83
2023/06/11 13:14:21;;;;;;;4.88;4.32;;;;;;;;;;6213082;28;20423;-84
2023/06/11 13:17:23;;;;;;;;;;;;;;;;;;6220578;28;20058;-85
2023/06/11 13:20:24;;;;;;;5.15;4.65;;;;;;;;;;6218395;28;19936;-84
2023/06/11 13:23:31;;;;;;;6.20;5.70;;;;;;;;;;6216267;28;20207;-83
2023/06/11 13:26:34;;;;;;;5.68;5.18;;;;;;;;;;6215001;28;20061;-83
2023/06/11 13:29:35;;;;;;;6.45;5.22;;;;;;;;;;6214122;28;20062;-83
2023/06/11 13:32:38;;;;;;;4.60;4.20;;;;;;;;;;6218140;28;20045;-84
2023/06/11 13:35:39;;;;;;;4.95;4.53;;;;;;;;;;6216324;28;20116;-86
2023/06/11 13:38:41;;;;;;;6.22;4.43;;;;;;;;;;6216308;28;20684;-85
2023/06/11 13:41:45;;;;;;;5.10;3.72;;;;;;;;;;6217489;28;20125;-84
2023/06/11 13:44:47;;;;;;;4.25;3.78;;;;;;;;;;6216900;28;20321;-81
2023/06/11 13:47:48;;;;;;;5.65;4.35;;;;;;;;;;6214199;28;20062;-82
2023/06/11 13:50:51;;;;;;;5.57;4.00;;;;;;;;;;6215623;28;20058;-84
2023/06/11 13:53:52;;;;;;;4.88;4.38;;;;;;;;;;6214707;28;20065;-82
2023/06/11 13:56:56;;;;;;;5.35;4.05;;;;;;;;;;6215747;28;20050;-81
2023/06/11 13:59:59;;;;;;;5.40;4.90;;;;;;;;;;6217157;28;20159;-80
2023/06/11 14:03:01;;;;;;;3.88;3.58;;;;;;;;;;6212261;28;20329;-85
2023/06/11 14:06:03;;;;;;;4.13;3.67;;;;;;;;;;6216593;28;20061;-79
2023/06/11 14:09:05;;;;;;;4.97;4.20;;;;;;;;;;6214909;28;20049;-83
2023/06/11 14:12:09;;;;;;;4.20;3.60;;;;;;;;;;6216623;28;20108;-83
2023/06/11 14:15:11;;;;;;;15.73;4.40;;;;;;;;;;6215611;28;20341;-81
2023/06/11 14:18:13;;;;;;;5.13;3.40;;;;;;;;;;6213907;28;20046;-83
2023/06/11 14:21:15;;;;;;;6.15;3.38;;;;;;;;;;6214844;28;20202;-83
2023/06/11 14:24:16;;;;;;;4.05;3.47;;;;;;;;;;6214074;28;20283;-83
2023/06/11 14:27:19;;;;;;;5.38;3.40;;;;;;;;;;6214416;28;20046;-82
2023/06/11 14:30:21;;;;;;;3.50;3.17;;;;;;;;;;6215256;28;20046;-86
2023/06/11 14:33:23;;;;;;;4.20;3.80;;;;;;;;;;6213943;28;20068;-83
2023/06/11 14:36:25;;;;;;;3.65;3.35;;;;;;;;;;6215988;28;20061;-84
2023/06/11 14:39:27;;;;;;;4.65;4.03;;;;;;;;;;6217006;28;20061;-82
2023/06/11 14:42:30;;;;;;;6.43;4.15;;;;;;;;;;6215992;28;20061;-82
2023/06/11 14:45:32;;;;;;;3.88;3.40;;;;;;;;;;6217089;28;20412;-81
2023/06/11 14:48:33;;;;;;;4.13;3.30;;;;;;;;;;6216679;28;20062;-85
2023/06/11 14:51:36;;;;;;;6.10;3.72;;;;;;;;;;6214558;28;20241;-83
2023/06/11 14:54:39;;;;;;;9.63;4.25;;;;;;;;;;6213835;28;20050;-82
2023/06/11 14:57:42;;;;;;;4.72;3.42;;;;;;;;;;6215838;28;20229;-82
2023/06/11 15:00:43;;;;;;;4.10;3.75;;;;;;;;;;6214207;28;20337;-84
2023/06/11 15:03:45;;;;;;;4.27;3.87;;;;;;;;;;6213947;28;20605;-82
2023/06/11 15:06:47;;;;;;;5.22;4.07;;;;;;;;;;6218272;28;21178;-81
2023/06/11 15:09:49;;;;;;;4.23;3.83;;;;;;;;;;6197993;28;20338;-81
2023/06/11 15:12:52;;;;;;;4.40;4.00;;;;;;;;;;6214463;28;20062;-83
2023/06/11 15:15:53;;;;;;;4.75;3.53;;;;;;;;;;6215525;28;20054;-83
2023/06/11 15:18:55;;;;;;;4.80;4.17;;;;;;;;;;6214949;28;20113;-83
2023/06/11 15:22:01;;;;;;;6.30;4.85;;;;;;;;;;6214351;28;20050;-83
2023/06/11 15:25:02;;;;;;;4.57;3.80;;;;;;;;;;6213421;28;20116;-83
2023/06/11 15:28:06;;;;;;;5.63;5.13;;;;;;;;;;6214272;28;20065;-83
2023/06/11 15:31:07;;;;;;;6.20;4.57;;;;;;;;;;6212475;28;20046;-84
2023/06/11 15:34:12;;;;;;;5.75;3.53;;;;;;;;;;6214583;28;20310;-83
2023/06/11 15:37:14;;;;;;;7.72;4.60;;;;;;;;;;6214181;28;20063;-82
2023/06/11 15:40:16;;;;;;;5.47;4.32;;;;;;;;;;6211836;28;20085;-82
2023/06/11 15:43:18;;;;;;;5.05;4.55;;;;;;;;;;6213364;28;20242;-83
2023/06/11 15:46:20;;;;;;;6.10;4.25;;;;;;;;;;6214525;28;20391;-82
2023/06/11 15:49:22;;;;;;;5.77;4.00;;;;;;;;;;6212960;28;20066;-82
2023/06/11 15:52:24;;;;;;;5.18;4.10;;;;;;;;;;6212071;28;20069;-83
2023/06/11 15:55:26;;;;;;;5.25;4.55;;;;;;;;;;6215467;28;22063;-82
2023/06/11 15:58:29;;;;;;;4.88;3.88;;;;;;;;;;6211436;28;20476;-82
2023/06/11 16:01:30;;;;;;;5.13;3.83;;;;;;;;;;6215282;28;20062;-82
2023/06/11 16:04:33;;;;;;;4.45;3.58;;;;;;;;;;6215660;28;20127;-84
2023/06/11 16:07:34;;;;;;;3.75;3.38;;;;;;;;;;6219348;28;20097;-81
2023/06/11 16:10:36;;;;;;;4.53;3.40;;;;;;;;;;6218062;28;20058;-82
2023/06/11 16:13:39;;;;;;;4.10;3.10;;;;;;;;;;6215490;28;20058;-82
2023/06/11 16:16:43;;;;;;;3.45;3.10;;;;;;;;;;6217899;28;20037;-81
2023/06/11 16:19:44;;;;;;;3.65;3.15;;;;;;;;;;6218728;28;20281;-82
2023/06/11 16:22:46;;;;;;;4.93;3.83;;;;;;;;;;6212495;28;20062;-82
2023/06/11 16:25:48;;;;;;;4.32;3.67;;;;;;;;;;6195561;28;20054;-82
2023/06/11 16:28:52;;;;;;;5.53;3.88;;;;;;;;;;6198272;28;20107;-83
2023/06/11 16:31:55;;;;;;;4.65;4.07;;;;;;;;;;6216551;28;20061;-82
2023/06/11 16:34:56;;;;;;;5.40;4.30;;;;;;;;;;6218446;28;20050;-82
2023/06/11 16:37:58;;;;;;;4.97;3.50;;;;;;;;;;6216010;28;20046;-82
2023/06/11 16:41:00;;;;;;;8.80;3.57;;;;;;;;;;6215996;28;20306;-83
2023/06/11 16:44:03;;;;;;;5.20;4.15;;;;;;;;;;6215535;28;20100;-82
2023/06/11 16:47:06;;;;;;;6.50;4.15;;;;;;;;;;6215987;28;20326;-82
2023/06/11 16:50:08;;;;;;;4.00;3.63;;;;;;;;;;6217000;28;20057;-82
2023/06/11 16:53:10;;;;;;;4.13;3.42;;;;;;;;;;6214932;28;20045;-82
2023/06/11 16:56:12;;;;;;;6.93;4.45;;;;;;;;;;6217435;28;20077;-82
2023/06/11 16:59:15;;;;;;;5.03;3.53;;;;;;;;;;6218386;28;20112;-82
2023/06/11 17:02:17;;;;;;;6.43;4.22;;;;;;;;;;6214795;28;20359;-83
2023/06/11 17:05:19;;;;;;;4.65;3.95;;;;;;;;;;6217860;28;20053;-82
2023/06/11 17:08:21;;;;;;;5.50;3.83;;;;;;;;;;6198532;28;20054;-83
2023/06/11 17:11:22;;;;;;;7.82;4.30;;;;;;;;;;6217701;28;20054;-81
2023/06/11 17:14:26;;;;;;;3.95;3.40;;;;;;;;;;6213960;28;20263;-83
2023/06/11 17:17:27;;;;;;;6.20;3.28;;;;;;;;;;6215177;28;20064;-82
2023/06/11 17:20:29;;;;;;;3.90;3.17;;;;;;;;;;6215745;28;20058;-85
2023/06/11 17:23:31;;;;;;;3.75;2.78;;;;;;;;;;6217425;28;20213;-81
2023/06/11 17:26:33;;;;;;;5.35;3.33;;;;;;;;;;6197674;28;20109;-82
2023/06/11 17:29:37;;;;;;;3.80;2.65;;;;;;;;;;6203877;28;20073;-83
2023/06/11 17:32:42;;;;;;;4.63;2.63;;;;;;;;;;6198172;28;20257;-81
2023/06/11 17:35:44;;;;;;;6.28;3.45;;;;;;;;;;6217273;28;20281;-82
2023/06/11 17:38:46;;;;;;;5.53;3.03;;;;;;;;;;6213091;28;20045;-81
2023/06/11 17:41:48;;;;;;;3.40;2.95;;;;;;;;;;6217465;28;20068;-82
2023/06/11 17:44:51;;;;;;;4.38;3.03;;;;;;;;;;6214475;28;20054;-83
2023/06/11 17:47:53;;;;;;;4.13;3.55;;;;;;;;;;6215323;28;20057;-82
2023/06/11 17:50:55;;;;;;;4.68;3.75;;;;;;;;;;6214406;28;20317;-82
2023/06/11 17:53:57;;;;;;;3.42;3.08;;;;;;;;;;6199158;28;20057;-81
2023/06/11 17:56:59;;;;;;;5.07;3.67;;;;;;;;;;6214804;28;20050;-84
2023/06/11 18:00:03;;;;;;;4.00;3.60;;;;;;;;;;6215105;28;20058;-81
2023/06/11 18:03:06;;;;;;;6.90;4.88;;;;;;;;;;6182931;28;20226;-81
2023/06/11 18:06:07;;;;;;;5.05;4.18;;;;;;;;;;6213281;28;20068;-82
2023/06/11 18:09:09;;;;;;;4.28;3.83;;;;;;;;;;6215657;28;20493;-83
2023/06/11 18:12:11;;;;;;;4.90;4.13;;;;;;;;;;6216275;28;20053;-82
2023/06/11 18:15:14;;;;;;;5.40;4.40;;;;;;;;;;6215370;28;20049;-82
2023/06/11 18:18:16;;;;;;;;;;;;;;;;;;6214106;28;20301;-82
2023/06/11 18:21:18;;;;;;;5.55;3.83;;;;;;;;;;6215043;28;19926;-82